Humidity-temperature Sensor

Selected Measurement Type: Air Temperature

 
Air Temperature [°C]     6 entries per hour
Showing data from 6/10/2017 (16:40:00 Z) to 6/7/2017 (00:01:00 Z)
Previous Next [ Day | 3-Days | 7-Days ]
First Last
Prev [ Day | 3-Days | 7-Days ] Next
First Last

Start Time:     :
End Time:     :     
Time (in GMT) :00 :50 :40 :30 :20 :10
Previous Next [ Day | 3-Days | 7-Days ]
First Last
Prev [ Day | 3-Days | 7-Days ] Next
First Last


123 => good data
MM => data is determined as missing
-- => data not received/configured
Back to Top Back to Top
6/10/2017 17:00 to 16:10 -- -- 24.93 24.94 24.90 24.86
6/10/2017 16:00 to 15:10 24.94 24.90 24.82 24.86 24.73 24.72
6/10/2017 15:00 to 14:10 24.86 24.79 24.78 24.66 24.67 24.73
6/10/2017 14:00 to 13:10 24.66 24.67 24.52 24.59 24.59 24.56
6/10/2017 13:00 to 12:10 24.54 24.57 24.54 24.59 24.54 24.68
6/10/2017 12:00 to 11:10 24.58 24.67 24.56 24.68 24.56 24.55
6/10/2017 11:00 to 10:10 24.56 24.49 24.56 24.54 24.55 24.57
6/10/2017 10:00 to 9:10 24.64 24.51 24.56 24.55 24.62 24.65
6/10/2017 09:00 to 8:10 24.61 24.63 24.62 24.69 24.65 24.82
6/10/2017 08:00 to 7:10 24.81 24.74 24.69 24.85 24.68 24.76
6/10/2017 07:00 to 6:10 24.74 24.68 24.80 24.93 24.91 24.86
6/10/2017 06:00 to 5:10 24.90 24.92 24.98 24.98 24.92 24.95
6/10/2017 05:00 to 4:10 24.91 25.03 24.91 25.04 24.95 24.98
6/10/2017 04:00 to 3:10 24.92 24.97 24.93 25.03 24.99 24.97
6/10/2017 03:00 to 2:10 24.94 25.05 25.07 25.09 25.02 24.99
6/10/2017 02:00 to 1:10 -- -- -- -- -- --
6/10/2017 01:00 to 0:10 25.03 25.02 25.10 25.06 25.06 25.12
6/10/2017 00:00 to 23:10 -- -- -- -- -- --
6/9/2017 23:00 to 22:10 25.12 25.11 25.16 25.16 25.13 25.07
6/9/2017 22:00 to 21:10 25.22 25.25 25.19 25.32 25.24 25.24
6/9/2017 21:00 to 20:10 25.20 25.18 25.15 25.12 25.25 25.21
6/9/2017 20:00 to 19:10 25.05 25.13 25.17 25.13 25.12 25.11
6/9/2017 19:00 to 18:10 25.09 25.19 25.14 25.26 25.22 25.03
6/9/2017 18:00 to 17:10 25.15 25.00 25.06 25.11 25.02 25.16
6/9/2017 17:00 to 16:10 25.11 25.01 24.98 25.00 25.12 25.25
6/9/2017 16:00 to 15:10 25.27 25.15 25.22 25.06 25.10 25.02
6/9/2017 15:00 to 14:10 -- -- -- -- -- --
6/9/2017 14:00 to 13:10 25.06 25.03 25.03 24.87 24.90 24.85
6/9/2017 13:00 to 12:10 24.81 24.83 24.86 24.80 24.80 24.81
6/9/2017 12:00 to 11:10 24.89 24.88 24.71 24.81 24.79 24.73
6/9/2017 11:00 to 10:10 24.81 24.80 24.80 24.74 24.73 24.83
6/9/2017 10:00 to 9:10 24.69 24.76 24.89 24.72 24.83 24.95
6/9/2017 09:00 to 8:10 24.87 24.80 24.85 24.90 24.97 24.78
6/9/2017 08:00 to 7:10 24.94 24.82 24.87 24.88 24.94 24.90
6/9/2017 07:00 to 6:10 24.98 25.00 25.02 24.94 24.94 25.03
6/9/2017 06:00 to 5:10 24.99 25.00 24.98 25.01 25.04 25.06
6/9/2017 05:00 to 4:10 25.06 25.11 24.98 24.99 25.09 25.17
6/9/2017 04:00 to 3:10 -- -- -- -- -- --
6/9/2017 03:00 to 2:10 25.22 25.25 25.09 25.13 25.10 25.26
6/9/2017 02:00 to 1:10 25.17 25.26 25.14 25.14 25.17 25.17
6/9/2017 01:00 to 0:10 -- -- -- -- -- --
6/9/2017 00:00 to 23:10 25.25 25.19 25.23 25.29 25.19 25.11
6/8/2017 23:00 to 22:10 25.34 25.34 25.25 25.36 25.21 25.16
6/8/2017 22:00 to 21:10 25.16 25.08 25.25 25.19 25.14 25.17
6/8/2017 21:00 to 20:10 25.29 25.20 25.34 25.19 25.26 25.16
6/8/2017 20:00 to 19:10 25.22 25.22 25.31 25.27 25.26 25.12
6/8/2017 19:00 to 18:10 25.31 25.17 25.16 25.27 25.24 25.13
6/8/2017 18:00 to 17:10 25.34 25.24 25.27 25.43 25.21 25.22
6/8/2017 17:00 to 16:10 25.38 25.20 25.36 25.39 25.22 25.23
6/8/2017 16:00 to 15:10 25.31 25.52 25.37 25.36 25.12 25.03
6/8/2017 15:00 to 14:10 25.21 25.25 25.17 25.12 25.07 25.11
6/8/2017 14:00 to 13:10 25.07 25.05 25.08 25.10 25.00 25.00
6/8/2017 13:00 to 12:10 25.04 24.99 25.08 25.07 25.04 25.01
6/8/2017 12:00 to 11:10 -- -- -- -- -- --
6/8/2017 11:00 to 10:10 25.06 25.12 24.95 25.00 24.98 25.19
6/8/2017 10:00 to 9:10 25.08 25.01 25.24 25.12 25.11 25.02
6/8/2017 09:00 to 8:10 25.05 25.11 25.22 25.18 25.19 25.28
6/8/2017 08:00 to 7:10 25.18 25.39 25.10 25.41 25.22 25.30
6/8/2017 07:00 to 6:10 25.32 25.25 25.33 25.36 25.35 25.39
6/8/2017 06:00 to 5:10 -- -- -- -- -- --
6/8/2017 05:00 to 4:10 25.54 25.39 25.37 25.40 25.39 25.42
6/8/2017 04:00 to 3:10 25.53 25.56 25.64 25.42 25.37 25.47
6/8/2017 03:00 to 2:10 25.43 25.43 25.51 25.44 25.53 25.47
6/8/2017 02:00 to 1:10 25.40 25.38 25.50 25.38 25.45 25.48
6/8/2017 01:00 to 0:10 25.43 25.46 25.60 25.59 25.49 25.61
6/8/2017 00:00 to 23:10 25.51 25.76 25.52 25.53 25.65 25.73
6/7/2017 23:00 to 22:10 25.78 25.48 25.53 25.52 25.66 25.55
6/7/2017 22:00 to 21:10 25.50 25.47 25.50 25.59 25.51 25.49
6/7/2017 21:00 to 20:10 25.67 25.48 25.62 25.52 25.58 25.69
6/7/2017 20:00 to 19:10 25.67 25.53 25.51 25.45 25.57 25.75
6/7/2017 19:00 to 18:10 25.52 25.48 25.59 25.49 25.67 25.57
6/7/2017 18:00 to 17:10 25.53 25.49 25.55 25.54 25.47 25.50
6/7/2017 17:00 to 16:10 25.46 25.70 25.63 25.53 25.53 25.65
6/7/2017 16:00 to 15:10 25.71 25.67 25.57 25.61 25.57 25.65
6/7/2017 15:00 to 14:10 25.71 25.55 25.62 25.59 25.58 25.52
6/7/2017 14:00 to 13:10 25.48 25.38 25.36 25.28 25.36 25.32
6/7/2017 13:00 to 12:10 25.27 25.30 25.26 25.33 25.41 25.52
6/7/2017 12:00 to 11:10 25.44 25.22 25.43 25.28 25.47 25.33
6/7/2017 11:00 to 10:10 25.44 25.37 25.42 25.32 25.34 25.60
6/7/2017 10:00 to 9:10 25.44 25.45 25.66 25.55 25.48 25.51
6/7/2017 09:00 to 8:10 25.64 25.60 25.49 25.58 25.62 25.77
6/7/2017 08:00 to 7:10 25.53 25.52 25.67 25.53 25.62 25.68
6/7/2017 07:00 to 6:10 25.63 25.76 25.59 25.68 25.81 25.86
6/7/2017 06:00 to 5:10 25.68 25.74 25.67 25.88 25.74 25.92
6/7/2017 05:00 to 4:10 25.95 25.75 25.76 25.84 25.96 25.85
6/7/2017 04:00 to 3:10 25.84 25.88 25.85 25.81 25.87 25.83
6/7/2017 03:00 to 2:10 25.88 25.86 25.85 25.94 25.82 25.81
6/7/2017 02:00 to 1:10 25.91 25.89 25.87 25.88 25.84 25.89
6/7/2017 01:00 to 0:10 25.84 25.82 25.83 26.01 25.86 25.73